Flight Track Log - Related Links

Times and Time Zones

All times are in EDT time to prevent confusion due to time zone crossing. See the AAL963 flight status page for this flight to view local times or setup timezone preferences in your user account.

Time Position Orientation Groundspeed Altitude Reporting Facility
EDT Latitude Longitude Course Direction KTS MPH feet Rate Location/Type
Fri 09:34:29 PM 32.8580 -97.0560 193° South 180 207 2,000  Level FlightAware ADS-B
Fri 09:34:55 PM 32.8360 -97.0630 195° South 204 235 2,300 769 Climbing FlightAware ADS-B
Fri 09:35:08 PM 32.8240 -97.0660 192° South 216 249 2,500 960 Climbing FlightAware ADS-B
Fri 09:35:20 PM 32.8150 -97.0680 191° South 225 259 2,700 1,500 Climbing FlightAware ADS-B
Fri 09:35:56 PM 32.7700 -97.0650 177° South 246 283 3,700 1,895 Climbing FlightAware ADS-B
Fri 09:36:17 PM 32.7460 -97.0630 176° South 248 285 4,500 2,341 Climbing FlightAware ADS-B
Fri 09:36:37 PM 32.7230 -97.0600 174° South 251 289 5,300 2,217 Climbing FlightAware ADS-B
Fri 09:37:03 PM 32.6930 -97.0550 172° South 257 296 6,200 2,053 Climbing FlightAware ADS-B
Fri 09:37:15 PM 32.6800 -97.0470 153° Southeast 262 302 6,600 2,000 Climbing FlightAware ADS-B
Fri 09:37:48 PM 32.6440 -97.0240 152° Southeast 267 307 7,700 2,032 Climbing FlightAware ADS-B
Fri 09:38:17 PM 32.6100 -97.0060 156° South 275 316 8,700 2,000 Climbing FlightAware ADS-B
Fri 09:38:27 PM 32.5990 -97.0000 155° Southeast 278 320 9,000 2,464 Climbing FlightAware ADS-B
Fri 09:39:13 PM 32.5440 -96.9670 153° Southeast 290 334 11,000 2,207 Climbing FlightAware ADS-B
Fri 09:39:54 PM 32.4940 -96.9380 154° Southeast 309 356 12,200 1,333 Climbing FlightAware ADS-B
Fri 09:40:34 PM 32.4390 -96.9070 155° Southeast 343 395 12,800 1,000 Climbing FlightAware ADS-B
Fri 09:41:18 PM 32.3730 -96.8680 153° Southeast 372 428 13,600 1,161 Climbing FlightAware ADS-B
Fri 09:42:07 PM 32.2950 -96.8220 154° Southeast 396 456 14,600 1,469 Climbing FlightAware ADS-B
Fri 09:42:56 PM 32.2090 -96.7860 160° South 407 468 16,000 1,742 Climbing FlightAware ADS-B
Fri 09:43:40 PM 32.1277 -96.7566 163° South 415 478 17,300 1,636 Climbing FlightAware ADS-B
Fri 09:44:24 PM 32.0465 -96.7253 162° South 425 489 18,400 1,500 Climbing FlightAware ADS-B
Fri 09:44:56 PM 31.9859 -96.7016 162° South 430 495 19,200 1,645 Climbing FlightAware ADS-B
Fri 09:45:26 PM 31.9278 -96.6795 162° South 435 501 20,100 1,548 Climbing FlightAware ADS-B
Fri 09:45:58 PM 31.8667 -96.6564 162° South 441 507 20,800 1,406 Climbing FlightAware ADS-B
Fri 09:46:30 PM 31.8038 -96.6306 161° South 448 516 21,600 1,429 Climbing FlightAware ADS-B
Fri 09:47:01 PM 31.7427 -96.6052 161° South 453 521 22,300 1,452 Climbing FlightAware ADS-B
Fri 09:47:32 PM 31.6827 -96.5806 161° South 456 525 23,100 1,500 Climbing FlightAware ADS-B
Fri 09:48:05 PM 31.6154 -96.5531 161° South 460 529 23,900 1,277 Climbing FlightAware ADS-B
Fri 09:49:06 PM 31.4913 -96.5030 161° South 471 542 25,100 1,187 Climbing FlightAware ADS-B
Fri 09:49:36 PM 31.4288 -96.4798 162° South 474 545 25,700 1,180 Climbing FlightAware ADS-B
Fri 09:50:07 PM 31.3633 -96.4559 163° South 476 548 26,300 1,065 Climbing FlightAware ADS-B
Fri 09:50:38 PM 31.2992 -96.4321 162° South 481 554 26,800 984 Climbing FlightAware ADS-B
Fri 09:51:08 PM 31.2337 -96.4077 162° South 486 559 27,300 947 Climbing FlightAware ADS-B
Fri 09:51:16 PM 31.2178 -96.4015 162° South 488 562 27,400 857 Climbing FlightAware ADS-B
Fri 09:51:29 PM 31.1905 -96.3866 155° Southeast 493 567 27,600 1,091 Climbing FlightAware ADS-B
Fri 09:51:38 PM 31.1737 -96.3743 148° Southeast 495 570 27,800 1,286 Climbing FlightAware ADS-B
Fri 09:51:57 PM 31.1404 -96.3399 134° Southeast 498 573 28,200 1,125 Climbing FlightAware ADS-B
Fri 09:52:10 PM 31.1216 -96.3115 128° Southeast 500 575 28,400 892 Climbing FlightAware ADS-B
Fri 09:53:11 PM 31.0395 -96.1783 126° Southeast 508 585 29,300 857 Climbing FlightAware ADS-B
Fri 09:53:41 PM 30.9985 -96.1114 126° Southeast 512 589 29,700 984 Climbing FlightAware ADS-B
Fri 09:55:13 PM 30.8714 -95.9054 126° Southeast 510 587 31,300 1,033 Climbing FlightAware ADS-B
Fri 09:55:43 PM 30.8297 -95.8383 126° Southeast 510 587 31,800 658 Climbing FlightAware ADS-B
Fri 09:57:48 PM 30.6570 -95.5609 126° Southeast 506 582 33,000 288 Climbing FlightAware ADS-B
Fri 09:59:53 PM 30.4854 -95.2872 126° Southeast 507 583 33,000  Level FlightAware ADS-B
Fri 10:00:55 PM 30.4003 -95.1524 126° Southeast 510 587 33,000  Level FlightAware ADS-B
Fri 10:01:27 PM 30.3555 -95.0816 126° Southeast 510 587 33,000  Level FlightAware ADS-B
Fri 10:01:57 PM 30.3133 -95.0149 126° Southeast 511 588 33,000  Level FlightAware ADS-B
Fri 10:02:28 PM 30.2707 -94.9476 126° Southeast 512 589 33,000  Level FlightAware ADS-B
Fri 10:03:28 PM 30.1859 -94.8143 126° Southeast 513 590 33,000  Level FlightAware ADS-B
Fri 10:05:29 PM 30.0162 -94.5486 126° Southeast 516 594 33,000  Level FlightAware ADS-B
Fri 10:05:59 PM 29.9731 -94.4814 127° Southeast 516 594 33,000  Level FlightAware ADS-B
Fri 10:06:30 PM 29.9292 -94.4132 127° Southeast 516 594 33,000  Level FlightAware ADS-B
Fri 10:07:00 PM 29.8860 -94.3461 127° Southeast 516 594 33,000  Level FlightAware ADS-B
Fri 10:08:35 PM 29.7518 -94.1384 127° Southeast 515 593 33,000  Level FlightAware ADS-B
Fri 10:09:04 PM 29.7102 -94.0753 127° Southeast 516 594 33,000  Level FlightAware ADS-B
Fri 10:09:14 PM 29.6939 -94.0541 132° Southeast 517 595 33,000  Level FlightAware ADS-B
Fri 10:09:32 PM 29.6622 -94.0191 136° Southeast 518 596 33,000  Level FlightAware ADS-B
Fri 10:10:03 PM 29.6051 -93.9671 142° Southeast 517 595 33,000  Level FlightAware ADS-B
Fri 10:10:34 PM 29.5456 -93.9162 143° Southeast 517 595 33,000  Level FlightAware ADS-B
Fri 10:11:07 PM 29.4812 -93.8617 144° Southeast 516 594 33,000  Level FlightAware ADS-B
Fri 10:11:46 PM 29.4058 -93.7979 144° Southeast 515 593 33,000  Level FlightAware ADS-B
Fri 10:12:17 PM 29.3474 -93.7482 143° Southeast 516 594 33,000  Level FlightAware ADS-B
Fri 10:12:48 PM 29.2873 -93.6973 144° Southeast 516 594 33,000  Level FlightAware ADS-B
Fri 10:13:19 PM 29.2282 -93.6470 143° Southeast 517 595 33,000  Level FlightAware ADS-B
Fri 10:13:50 PM 29.1692 -93.5971 144° Southeast 517 595 33,000  Level FlightAware ADS-B
Fri 10:14:20 PM 29.1113 -93.5480 143° Southeast 517 595 33,000  Level FlightAware ADS-B
Fri 10:14:50 PM 29.0536 -93.4993 144° Southeast 518 596 33,000  Level FlightAware ADS-B
Fri 10:15:21 PM 28.9937 -93.4488 144° Southeast 518 596 33,000  Level FlightAware ADS-B
Fri 10:15:51 PM 28.9347 -93.3991 144° Southeast 518 596 33,000  Level FlightAware ADS-B
Fri 10:16:29 PM 28.8620 -93.3379 144° Southeast 517 595 33,000 -58 Level FlightAware ADS-B
Fri 10:17:35 PM 28.7411 -93.2347 144° Southeast 515 593 32,900 -47 Descending Houston Center
Fri 10:18:36 PM 28.6267 -93.1392 144° Southeast 512 589 32,900 49 Level Houston Center
Fri 10:19:37 PM 28.5125 -93.0439 144° Southeast 511 588 33,000  Climbing Houston Center
Fri 10:20:38 PM 28.3975 -92.9478 144° Southeast 512 589 32,900 -49 Descending Houston Center
Fri 10:21:39 PM 28.2831 -92.8533 144° Southeast 510 587 32,900  Level Houston Center
Fri 10:22:40 PM 28.1697 -92.7594 144° Southeast 507 583 32,900  Level Houston Center
Fri 10:23:41 PM 28.0561 -92.6653 144° Southeast 507 583 32,900 49 Level Houston Center
Fri 10:24:42 PM 27.9419 -92.5728 144° Southeast 504 580 33,000 49 Climbing Houston Center
Fri 10:25:43 PM 27.8294 -92.4772 143° Southeast 506 582 33,000  Level Houston Center
Fri 10:26:44 PM 27.7142 -92.3875 145° Southeast 504 580 33,000 -49 Level Houston Center
Fri 10:27:45 PM 27.6000 -92.2950 144° Southeast 506 582 32,900  Descending Houston Center
Fri 10:28:46 PM 27.4636 -92.1833 144° Southeast 505 581 33,000  Climbing Houston Center
Fri 10:29:47 PM 27.3489 -92.0900 144° Southeast 505 581 32,900 -49 Descending Houston Center
Fri 10:30:48 PM 27.2336 -91.9969 144° Southeast 509 586 32,900  Level Houston Center
Fri 10:31:49 PM 27.1183 -91.9053 145° Southeast 510 587 32,900 49 Level Houston Center
Fri 10:32:51 PM 27.0031 -91.8103 144° Southeast 511 588 33,000  Climbing Houston Center
Fri 10:33:52 PM 26.8856 -91.7217 146° Southeast 510 587 32,900  Descending Houston Center
Fri 10:34:53 PM 26.7681 -91.6322 146° Southeast 511 588 33,000 Climbing Houston Center
Fri 10:36:00 PM 26.6474 -91.5312 143° Southeast  Level FlightAware Approximate
Fri 10:43:00 PM 25.8806 -90.9162 145° Southeast  Level FlightAware Approximate
Fri 10:44:00 PM 25.7701 -90.8302 145° Southeast  Level FlightAware Approximate
Fri 10:45:00 PM 25.6595 -90.7444 145° Southeast  Level FlightAware Approximate
Fri 10:46:00 PM 25.5491 -90.6583 145° Southeast  Level FlightAware Approximate
Fri 10:47:00 PM 25.4387 -90.5724 145° Southeast  Level FlightAware Approximate
Fri 10:48:00 PM 25.3282 -90.4867 145° Southeast  Level FlightAware Approximate
Fri 10:49:00 PM 25.2176 -90.4011 145° Southeast  Level FlightAware Approximate
Fri 10:50:00 PM 25.1071 -90.3156 145° Southeast  Level FlightAware Approximate
Fri 10:51:00 PM 24.9964 -90.2303 145° Southeast  Level FlightAware Approximate
Fri 10:52:00 PM 24.8858 -90.1452 145° Southeast  Level FlightAware Approximate
Fri 10:53:00 PM 24.7750 -90.0602 145° Southeast  Level FlightAware Approximate
Fri 10:54:00 PM 24.6642 -89.9754 145° Southeast  Level FlightAware Approximate
Fri 10:55:00 PM 24.5534 -89.8907 145° Southeast  Level FlightAware Approximate
Fri 10:56:00 PM 24.4497 -89.7970 135° Southeast  Level FlightAware Approximate
Fri 10:57:00 PM 24.3536 -89.6934 136° Southeast  Level FlightAware Approximate
Fri 10:58:00 PM 24.2574 -89.5900 136° Southeast  Level FlightAware Approximate
Fri 10:59:00 PM 24.1612 -89.4866 136° Southeast  Level FlightAware Approximate
Fri 10:59:18 PM 24.0000 -89.4740 136° Southeast 509 586 33,000  Level FlightAware ADS-B
Fri 11:00:03 PM 23.9150 -89.4100 145° Southeast 509 586 33,000  Level FlightAware ADS-B
Fri 11:00:57 PM 23.8200 -89.3390 146° Southeast 509 586 33,000  Level FlightAware ADS-B
Fri 11:01:36 PM 23.7300 -89.2710 145° Southeast 510 587 33,000  Level FlightAware ADS-B
Fri 11:02:21 PM 23.6450 -89.2070 145° Southeast 509 586 33,000  Level FlightAware ADS-B
Fri 11:03:06 PM 23.5490 -89.1350 145° Southeast 511 588 33,000  Level FlightAware ADS-B
Fri 11:03:43 PM 23.4940 -89.0940 146° Southeast 511 588 33,000  Level FlightAware ADS-B
Fri 11:04:23 PM 23.4170 -89.0360 145° Southeast 511 588 33,000  Level FlightAware ADS-B
Fri 11:05:26 PM 23.2820 -88.9360 146° Southeast 512 589 33,000  Level FlightAware ADS-B
Fri 11:06:07 PM 23.2040 -88.8770 145° Southeast 512 589 33,000  Level FlightAware ADS-B
Fri 11:06:46 PM 23.1370 -88.8280 146° Southeast 513 590 33,000  Level FlightAware ADS-B
Fri 11:07:27 PM 23.0500 -88.7630 145° Southeast 514 592 33,000  Level FlightAware ADS-B
Fri 11:08:12 PM 22.9620 -88.6980 146° Southeast 513 590 33,000  Level FlightAware ADS-B
Fri 11:08:55 PM 22.8730 -88.6320 146° Southeast 514 592 33,000  Level FlightAware ADS-B
Fri 11:09:36 PM 22.7890 -88.5700 146° Southeast 513 590 33,000  Level FlightAware ADS-B
Fri 11:11:16 PM 22.6140 -88.4390 145° Southeast 513 590 33,000  Level FlightAware ADS-B
Fri 11:12:10 PM 22.6190 -88.4440 317° Northwest 513 590 33,000  Level FlightAware ADS-B
Fri 11:12:50 PM 22.4340 -88.2630 138° Southeast 511 588 33,000  Level FlightAware ADS-B
Fri 11:13:31 PM 22.3660 -88.1940 137° Southeast 508 585 33,000  Level FlightAware ADS-B
Fri 11:14:13 PM 22.2610 -88.0880 137° Southeast 507 583 33,000  Level FlightAware ADS-B
Fri 11:14:54 PM 22.1760 -88.0020 137° Southeast 506 582 33,000  Level FlightAware ADS-B
Fri 11:16:19 PM 22.0450 -87.8670 136° Southeast 505 581 33,000  Level FlightAware ADS-B
Fri 11:17:04 PM 22.0000 -87.8240 138° Southeast 505 581 33,000  Level FlightAware ADS-B
Fri 11:17:47 PM 21.9240 -87.7470 137° Southeast 505 581 33,000  Level FlightAware ADS-B
Fri 11:18:25 PM 21.8600 -87.6830 137° Southeast 503 579 33,000  Level FlightAware ADS-B
Fri 11:19:13 PM 21.7780 -87.6010 137° Southeast 504 580 33,000  Level FlightAware ADS-B
Fri 11:19:49 PM 21.7240 -87.5480 138° Southeast 505 581 33,000  Level FlightAware ADS-B
Fri 11:20:33 PM 21.6520 -87.4770 137° Southeast 505 581 33,000  Level FlightAware ADS-B
Fri 11:21:15 PM 21.5770 -87.4020 137° Southeast 507 583 33,000  Level FlightAware ADS-B
Fri 11:22:15 PM 21.4120 -87.2390 137° Southeast 509 586 33,000  Level FlightAware ADS-B
Fri 11:22:55 PM 21.3420 -87.1710 138° Southeast 510 587 33,000  Level FlightAware ADS-B
Fri 11:23:36 PM 21.2740 -87.1030 137° Southeast 510 587 33,000  Level FlightAware ADS-B
Fri 11:24:19 PM 21.1950 -87.0260 138° Southeast 509 586 33,000  Level FlightAware ADS-B
Fri 11:25:01 PM 21.1240 -86.9560 137° Southeast 510 587 33,000  Level FlightAware ADS-B
Fri 11:25:43 PM 21.0510 -86.8840 137° Southeast 510 587 33,000  Level FlightAware ADS-B
Fri 11:26:27 PM 20.9740 -86.8090 138° Southeast 510 587 33,000  Level FlightAware ADS-B
Fri 11:27:07 PM 20.9040 -86.7420 138° Southeast 511 588 33,000  Level FlightAware ADS-B
Fri 11:27:51 PM 20.8260 -86.6650 137° Southeast 510 587 33,000  Level FlightAware ADS-B
Fri 11:28:29 PM 20.7590 -86.6010 138° Southeast 510 587 33,000  Level FlightAware ADS-B
Fri 11:29:15 PM 20.6820 -86.5260 138° Southeast 509 586 33,000  Level FlightAware ADS-B
Fri 11:29:53 PM 20.6140 -86.4600 138° Southeast 509 586 33,000  Level FlightAware ADS-B
Fri 11:30:35 PM 20.5410 -86.3900 138° Southeast 510 587 33,000  Level FlightAware ADS-B
Fri 11:31:17 PM 20.4790 -86.3290 137° Southeast 510 587 33,000  Level FlightAware ADS-B
Fri 11:32:15 PM 20.3630 -86.2180 138° Southeast 510 587 33,000  Level FlightAware ADS-B
Fri 11:33:01 PM 20.2980 -86.1540 137° Southeast 510 587 33,000  Level FlightAware ADS-B
Fri 11:33:36 PM 20.2250 -86.0860 139° Southeast 509 586 33,000  Level FlightAware ADS-B
Fri 11:34:19 PM 20.1480 -86.0120 138° Southeast 508 585 33,000  Level FlightAware ADS-B
Fri 11:35:04 PM 20.0690 -85.9360 138° Southeast 509 586 33,000  Level FlightAware ADS-B
Fri 11:35:45 PM 19.9960 -85.8670 138° Southeast 507 583 33,000  Level FlightAware ADS-B
Fri 11:36:23 PM 19.9290 -85.8030 138° Southeast 507 583 33,000  Level FlightAware ADS-B
Fri 11:37:11 PM 19.8450 -85.7240 138° Southeast 506 582 33,000  Level FlightAware ADS-B
Fri 11:37:51 PM 19.7740 -85.6580 139° Southeast 507 583 33,000  Level FlightAware ADS-B
Fri 11:38:33 PM 19.7010 -85.5890 138° Southeast 507 583 33,000  Level FlightAware ADS-B
Fri 11:39:08 PM 19.6500 -85.5400 138° Southeast 508 585 33,000  Level FlightAware ADS-B
Fri 11:39:56 PM 19.5790 -85.4720 138° Southeast 508 585 33,000  Level FlightAware ADS-B
Fri 11:40:07 PM 19.5350 -85.4330 140° Southeast 510 587 33,000  Level FlightAware ADS-B
Fri 11:41:06 PM 19.4310 -85.3360 139° Southeast 511 588 33,000  Level FlightAware ADS-B
Fri 11:41:49 PM 19.3550 -85.2650 139° Southeast 511 588 33,000  Level FlightAware ADS-B
Fri 11:42:37 PM 19.2790 -85.1930 138° Southeast 512 589 33,000  Level FlightAware ADS-B
Fri 11:43:13 PM 19.2250 -85.1420 138° Southeast 512 589 33,000  Level FlightAware ADS-B
Fri 11:43:59 PM 19.1560 -85.0760 138° Southeast 512 589 33,000  Level FlightAware ADS-B
Fri 11:44:36 PM 19.1010 -85.0230 138° Southeast 512 589 33,000  Level FlightAware ADS-B
Fri 11:45:33 PM 18.9810 -84.9160 140° Southeast 516 594 33,000  Level FlightAware ADS-B
Fri 11:46:21 PM 18.9090 -84.8470 138° Southeast 516 594 33,000  Level FlightAware ADS-B
Fri 11:46:57 PM 18.8550 -84.7950 138° Southeast 516 594 33,000  Level FlightAware ADS-B
Fri 11:47:44 PM 18.7840 -84.7280 138° Southeast 516 594 33,000  Level FlightAware ADS-B
Fri 11:48:20 PM 18.7300 -84.6760 138° Southeast 516 594 33,000  Level FlightAware ADS-B
Fri 11:49:08 PM 18.6570 -84.6080 139° Southeast 516 594 33,000  Level FlightAware ADS-B
Fri 11:49:44 PM 18.6030 -84.5560 138° Southeast 516 594 33,000  Level FlightAware ADS-B
Fri 11:50:24 PM 18.5430 -84.4990 138° Southeast 516 594 33,000  Level FlightAware ADS-B
Fri 11:51:11 PM 18.4720 -84.4310 138° Southeast 516 594 33,000  Level FlightAware ADS-B
Fri 11:51:48 PM 18.4160 -84.3780 138° Southeast 516 594 33,000  Level FlightAware ADS-B
Fri 11:52:34 PM 18.3460 -84.3130 139° Southeast 516 594 33,000  Level FlightAware ADS-B
Fri 11:53:20 PM 18.2770 -84.2470 138° Southeast 516 594 33,000  Level FlightAware ADS-B
Fri 11:53:56 PM 18.2230 -84.1950 138° Southeast 516 594 33,000  Level FlightAware ADS-B
Fri 11:54:45 PM 18.1490 -84.1250 138° Southeast 516 594 33,000 39 Level FlightAware ADS-B
Fri 11:57:00 PM 17.9271 -83.9088 137° Southeast  Level Estimated
Fri 11:58:00 PM 17.8284 -83.8128 137° Southeast  Level Estimated
Fri 11:59:00 PM 17.7297 -83.7170 137° Southeast  Level Estimated
Sat 12:00:00 AM 17.6309 -83.6212 137° Southeast  Level Estimated
Sat 12:01:00 AM 17.5321 -83.5256 137° Southeast  Level Estimated
Sat 12:02:00 AM 17.4332 -83.4301 137° Southeast  Level Estimated
Sat 12:03:00 AM 17.3343 -83.3347 137° Southeast  Level Estimated
Sat 12:04:00 AM 17.2353 -83.2394 137° Southeast  Level Estimated
Sat 12:05:00 AM 17.1363 -83.1442 137° Southeast  Level Estimated
Sat 12:06:00 AM 17.0372 -83.0491 137° Southeast  Level Estimated
Sat 12:07:00 AM 16.9381 -82.9541 137° Southeast  Level Estimated
Sat 12:08:00 AM 16.8390 -82.8592 137° Southeast  Level Estimated
Sat 12:09:00 AM 16.7398 -82.7643 138° Southeast  Level Estimated
Sat 12:10:00 AM 16.6406 -82.6696 138° Southeast  Level Estimated
Sat 12:11:00 AM 16.5413 -82.5750 138° Southeast  Level Estimated
Sat 12:12:00 AM 16.4419 -82.4805 138° Southeast  Level Estimated
Sat 12:13:00 AM 16.3426 -82.3861 138° Southeast  Level Estimated
Sat 12:14:00 AM 16.2432 -82.2918 138° Southeast  Level Estimated
Sat 12:15:00 AM 16.1437 -82.1975 138° Southeast  Level Estimated
Sat 12:16:00 AM 16.0443 -82.1034 138° Southeast  Level Estimated
Sat 12:17:00 AM 15.9447 -82.0094 138° Southeast  Level Estimated
Sat 12:18:00 AM 15.8452 -81.9154 138° Southeast  Level Estimated
Sat 12:19:00 AM 15.7456 -81.8216 138° Southeast  Level Estimated
Sat 12:20:00 AM 15.6459 -81.7278 138° Southeast  Level Estimated
Sat 12:21:00 AM 15.5462 -81.6341 138° Southeast  Level Estimated
Sat 12:22:00 AM 15.4465 -81.5406 138° Southeast  Level Estimated
Sat 12:23:00 AM 15.3467 -81.4471 138° Southeast  Level Estimated
Sat 12:24:00 AM 15.2469 -81.3537 138° Southeast  Level Estimated
Sat 12:25:00 AM 15.1471 -81.2604 138° Southeast  Level Estimated
Sat 12:26:00 AM 15.0472 -81.1672 138° Southeast  Level Estimated
Sat 12:27:00 AM 14.9473 -81.0740 138° Southeast  Level Estimated
Sat 12:28:00 AM 14.8473 -80.9810 138° Southeast  Level Estimated
Sat 12:29:00 AM 14.7473 -80.8880 138° Southeast  Level Estimated
Sat 12:30:00 AM 14.6473 -80.7951 138° Southeast  Level Estimated
Sat 12:31:00 AM 14.5472 -80.7023 138° Southeast  Level Estimated
Sat 12:32:00 AM 14.4471 -80.6096 138° Southeast  Level Estimated
Sat 12:33:00 AM 14.3469 -80.5170 138° Southeast  Level Estimated
Sat 12:34:00 AM 14.2468 -80.4245 138° Southeast  Level Estimated
Sat 12:35:00 AM 14.1466 -80.3320 138° Southeast  Level Estimated
Sat 12:36:00 AM 14.0463 -80.2396 138° Southeast  Level Estimated
Sat 12:37:00 AM 13.9460 -80.1473 138° Southeast  Level Estimated
Sat 12:38:00 AM 13.8457 -80.0551 138° Southeast  Level Estimated
Sat 12:39:00 AM 13.7454 -79.9630 138° Southeast  Level Estimated
Sat 12:40:00 AM 13.6450 -79.8709 138° Southeast  Level Estimated
Sat 12:41:00 AM 13.5445 -79.7789 138° Southeast  Level Estimated
Sat 12:42:00 AM 13.4441 -79.6870 138° Southeast  Level Estimated
Sat 12:43:00 AM 13.3436 -79.5952 138° Southeast  Level Estimated
Sat 12:44:00 AM 13.2431 -79.5035 138° Southeast  Level Estimated
Sat 12:45:00 AM 13.1425 -79.4118 138° Southeast  Level Estimated
Sat 12:46:00 AM 13.0420 -79.3202 138° Southeast  Level Estimated
Sat 12:47:00 AM 12.9413 -79.2287 138° Southeast  Level Estimated
Sat 12:48:00 AM 12.8407 -79.1372 138° Southeast  Level Estimated
Sat 12:49:00 AM 12.7400 -79.0458 138° Southeast  Level Estimated
Sat 12:50:00 AM 12.6393 -78.9545 138° Southeast  Level Estimated
Sat 12:51:00 AM 12.5386 -78.8633 139° Southeast  Level Estimated
Sat 12:52:00 AM 12.4378 -78.7721 139° Southeast  Level Estimated
Sat 12:53:00 AM 12.3370 -78.6811 139° Southeast  Level Estimated
Sat 12:54:00 AM 12.2361 -78.5900 139° Southeast  Level Estimated
Sat 12:55:00 AM 12.1353 -78.4991 139° Southeast  Level Estimated
Sat 12:56:00 AM 12.0344 -78.4082 139° Southeast  Level Estimated
Sat 12:57:00 AM 11.9334 -78.3174 139° Southeast  Level Estimated
Sat 12:58:00 AM 11.8325 -78.2266 139° Southeast  Level Estimated
Sat 12:59:00 AM 11.7315 -78.1360 139° Southeast  Level Estimated
Sat 01:00:00 AM 11.6301 -78.0450 139° Southeast  Level Estimated
Sat 01:01:00 AM 11.5287 -77.9542 139° Southeast  Level Estimated
Sat 01:02:00 AM 11.4273 -77.8633 139° Southeast  Level Estimated
Sat 01:03:00 AM 11.3258 -77.7726 139° Southeast  Level Estimated
Sat 01:04:00 AM 11.2243 -77.6819 139° Southeast  Level Estimated
Sat 01:05:00 AM 11.1228 -77.5913 139° Southeast  Level Estimated
Sat 01:06:00 AM 11.0213 -77.5008 139° Southeast  Level Estimated
Sat 01:07:00 AM 10.9197 -77.4103 139° Southeast  Level Estimated
Sat 01:08:00 AM 10.8177 -77.3195 139° Southeast  Level Estimated
Sat 01:09:00 AM 10.7158 -77.2288 139° Southeast  Level Estimated
Sat 01:10:00 AM 10.6137 -77.1382 139° Southeast  Level Estimated
Sat 01:11:00 AM 10.5117 -77.0476 139° Southeast  Level Estimated
Sat 01:12:00 AM 10.4096 -76.9571 139° Southeast  Level Estimated
Sat 01:13:00 AM 10.3075 -76.8667 139° Southeast  Level Estimated
Sat 01:14:00 AM 10.2054 -76.7763 139° Southeast  Level Estimated
Sat 01:15:00 AM 10.1032 -76.6859 139° Southeast  Level Estimated
Sat 01:16:00 AM 10.0011 -76.5956 139° Southeast  Level Estimated
Sat 01:17:00 AM 9.8989 -76.5054 139° Southeast  Level Estimated
Sat 01:18:00 AM 9.7967 -76.4153 139° Southeast  Level Estimated
Sat 01:19:00 AM 9.6944 -76.3251 139° Southeast  Level Estimated
Sat 01:20:00 AM 9.5921 -76.2351 139° Southeast  Level Estimated
Sat 01:21:00 AM 9.4899 -76.1451 139° Southeast  Level Estimated
Sat 01:22:00 AM 9.3876 -76.0551 139° Southeast  Level Estimated
Sat 01:23:00 AM 9.2852 -75.9652 139° Southeast  Level Estimated
Sat 01:24:00 AM 9.1828 -75.8754 139° Southeast  Level Estimated
Sat 01:25:00 AM 9.0805 -75.7856 139° Southeast  Level Estimated
Sat 01:26:00 AM 8.9781 -75.6959 139° Southeast  Level Estimated
Sat 01:27:00 AM 8.8757 -75.6062 139° Southeast  Level Estimated
Sat 01:28:00 AM 8.7732 -75.5165 139° Southeast  Level Estimated
Sat 01:29:00 AM 8.6707 -75.4269 139° Southeast  Level Estimated
Sat 01:30:00 AM 8.5682 -75.3374 139° Southeast  Level Estimated
Sat 01:31:00 AM 8.4657 -75.2479 139° Southeast  Level Estimated
Sat 01:32:00 AM 8.3632 -75.1585 139° Southeast  Level Estimated
Sat 01:33:00 AM 8.2607 -75.0691 139° Southeast  Level Estimated
Sat 01:34:00 AM 8.1581 -74.9797 139° Southeast  Level Estimated
Sat 01:35:00 AM 8.0555 -74.8904 139° Southeast  Level Estimated
Sat 01:36:00 AM 7.9529 -74.8011 139° Southeast  Level Estimated
Sat 01:36:42 AM 6.9800 -73.8770 139° Southeast 501 577 37,000  Level FlightAware ADS-B
Sat 01:37:00 AM 7.8503 -74.7119 139° Southeast  Level Estimated
Sat 01:37:25 AM 6.8960 -73.8220 147° Southeast 499 574 37,000  Level FlightAware ADS-B
Sat 01:38:09 AM 6.8080 -73.7660 148° Southeast 495 570 37,000  Level FlightAware ADS-B
Sat 01:38:49 AM 6.7310 -73.7160 147° Southeast 492 566 37,000  Level FlightAware ADS-B
Sat 01:39:31 AM 6.6510 -73.6650 148° Southeast 490 564 37,000  Level FlightAware ADS-B
Sat 01:40:12 AM 6.5730 -73.6150 148° Southeast 490 564 37,000  Level FlightAware ADS-B
Sat 01:40:58 AM 6.4830 -73.5580 148° Southeast 489 563 37,000  Level FlightAware ADS-B
Sat 01:41:40 AM 6.4040 -73.5070 147° Southeast 489 563 37,000  Level FlightAware ADS-B
Sat 01:42:18 AM 6.3300 -73.4600 148° Southeast 490 564 37,000  Level FlightAware ADS-B
Sat 01:43:01 AM 6.2510 -73.4090 147° Southeast 491 565 37,000  Level FlightAware ADS-B
Sat 01:43:44 AM 6.1650 -73.3540 148° Southeast 492 566 37,000  Level FlightAware ADS-B
Sat 01:44:42 AM 6.0620 -73.2880 147° Southeast 493 567 37,000  Level FlightAware ADS-B
Sat 01:45:19 AM 6.0020 -73.2490 147° Southeast 493 567 37,000  Level FlightAware ADS-B
Sat 01:46:00 AM 5.9350 -73.2050 147° Southeast 493 567 37,000  Level FlightAware ADS-B
Sat 01:46:48 AM 5.8570 -73.1540 147° Southeast 493 567 37,000  Level FlightAware ADS-B
Sat 01:47:24 AM 5.7980 -73.1160 147° Southeast 493 567 37,000  Level FlightAware ADS-B
Sat 01:48:08 AM 5.6520 -73.0270 149° Southeast 496 571 37,000  Level FlightAware ADS-B
Sat 01:48:54 AM 5.5640 -72.9710 148° Southeast 496 571 37,000  Level FlightAware ADS-B
Sat 01:49:36 AM 5.4820 -72.9190 148° Southeast 495 570 37,000  Level FlightAware ADS-B
Sat 01:50:12 AM 5.4140 -72.8760 148° Southeast 494 568 37,000  Level FlightAware ADS-B
Sat 01:50:58 AM 5.3240 -72.8180 147° Southeast 493 567 37,000  Level FlightAware ADS-B
Sat 01:51:38 AM 5.2480 -72.7700 148° Southeast 492 566 37,000  Level FlightAware ADS-B
Sat 01:52:22 AM 5.1630 -72.7160 148° Southeast 491 565 37,000  Level FlightAware ADS-B
Sat 01:53:21 AM 5.0620 -72.6510 147° Southeast 489 563 37,000  Level FlightAware ADS-B
Sat 01:53:57 AM 5.0040 -72.6130 147° Southeast 489 563 37,000  Level FlightAware ADS-B
Sat 01:54:45 AM 4.9270 -72.5620 147° Southeast 489 563 37,000  Level FlightAware ADS-B
Sat 01:55:20 AM 4.8700 -72.5260 148° Southeast 489 563 37,000  Level FlightAware ADS-B
Sat 01:56:06 AM 4.7960 -72.4770 147° Southeast 489 563 37,000  Level FlightAware ADS-B
Sat 01:56:42 AM 4.7380 -72.4390 147° Southeast 489 563 37,000  Level FlightAware ADS-B
Sat 01:57:30 AM 4.6600 -72.3890 147° Southeast 489 563 37,000  Level FlightAware ADS-B
Sat 01:58:06 AM 4.6020 -72.3510 147° Southeast 489 563 37,000  Level FlightAware ADS-B
Sat 01:58:55 AM 4.5230 -72.3000 147° Southeast 489 563 37,000  Level FlightAware ADS-B
Sat 01:59:32 AM 4.4640 -72.2610 147° Southeast 489 563 37,000  Level FlightAware ADS-B
Sat 02:00:31 AM 4.3690 -72.1990 147° Southeast 489 563 37,000  Level FlightAware ADS-B
Sat 02:01:08 AM 4.3090 -72.1600 147° Southeast 489 563 37,000  Level FlightAware ADS-B
Sat 02:01:56 AM 4.2310 -72.1100 147° Southeast 489 563 37,000  Level FlightAware ADS-B
Sat 02:02:33 AM 4.1720 -72.0710 147° Southeast 489 563 37,000 -26 Level FlightAware ADS-B
Sat 02:05:00 AM 3.9214 -71.8530 139° Southeast  Level Estimated
Sat 02:06:00 AM 3.8191 -71.7641 139° Southeast  Level Estimated
Sat 02:07:00 AM 3.7168 -71.6751 139° Southeast  Level Estimated
Sat 02:08:00 AM 3.6144 -71.5862 139° Southeast  Level Estimated
Sat 02:09:00 AM 3.5121 -71.4974 139° Southeast  Level Estimated
Sat 02:10:00 AM 3.4098 -71.4085 139° Southeast  Level Estimated
Sat 02:11:00 AM 3.3074 -71.3197 139° Southeast  Level Estimated
Sat 02:12:00 AM 3.2051 -71.2308 139° Southeast  Level Estimated
Sat 02:13:00 AM 3.1027 -71.1420 139° Southeast  Level Estimated
Sat 02:14:00 AM 3.0003 -71.0533 139° Southeast  Level Estimated
Sat 02:15:00 AM 2.8979 -70.9645 139° Southeast  Level Estimated
Sat 02:16:00 AM 2.7956 -70.8757 139° Southeast  Level Estimated
Sat 02:17:00 AM 2.6932 -70.7870 139° Southeast  Level Estimated
Sat 02:18:00 AM 2.5908 -70.6983 139° Southeast  Level Estimated
Sat 02:19:00 AM 2.4883 -70.6096 139° Southeast  Level Estimated
Sat 02:20:00 AM 2.3859 -70.5209 139° Southeast  Level Estimated
Sat 02:21:00 AM 2.2835 -70.4322 139° Southeast  Level Estimated
Sat 02:22:00 AM 2.1811 -70.3435 139° Southeast  Level Estimated
Sat 02:23:00 AM 2.0787 -70.2549 139° Southeast  Level Estimated
Sat 02:24:00 AM 1.9762 -70.1662 139° Southeast  Level Estimated
Sat 02:25:00 AM 1.8738 -70.0776 139° Southeast  Level Estimated
Sat 02:26:00 AM 1.7714 -69.9890 139° Southeast  Level Estimated
Sat 02:27:00 AM 1.6689 -69.9003 139° Southeast  Level Estimated
Sat 02:28:00 AM 1.5665 -69.8117 139° Southeast  Level Estimated
Sat 02:29:00 AM 1.4640 -69.7231 139° Southeast  Level Estimated
Sat 02:30:00 AM 1.3615 -69.6345 139° Southeast  Level Estimated
Sat 02:31:00 AM 1.2591 -69.5460 139° Southeast  Level Estimated
Sat 02:32:00 AM 1.1566 -69.4574 139° Southeast  Level Estimated
Sat 02:33:00 AM 1.0541 -69.3688 139° Southeast  Level Estimated
Sat 02:34:00 AM 0.9517 -69.2803 139° Southeast  Level Estimated
Sat 02:35:00 AM 0.8492 -69.1917 139° Southeast  Level Estimated
Sat 02:36:00 AM 0.7467 -69.1031 139° Southeast  Level Estimated
Sat 02:37:00 AM 0.6442 -69.0146 139° Southeast  Level Estimated
Sat 02:38:00 AM 0.5418 -68.9261 139° Southeast  Level Estimated
Sat 02:39:00 AM 0.4393 -68.8375 139° Southeast  Level Estimated
Sat 02:40:00 AM 0.3368 -68.7490 139° Southeast  Level Estimated
Sat 02:41:00 AM 0.2343 -68.6604 139° Southeast  Level Estimated
Sat 02:42:00 AM 0.1319 -68.5719 139° Southeast  Level Estimated
Sat 02:43:00 AM 0.0294 -68.4834 139° Southeast  Level Estimated
Sat 02:44:00 AM -0.0731 -68.3948 139° Southeast  Level Estimated
Sat 02:45:00 AM -0.1756 -68.3063 139° Southeast  Level Estimated
Sat 02:46:00 AM -0.2781 -68.2178 139° Southeast  Level Estimated
Sat 02:47:00 AM -0.3804 -68.1294 139° Southeast  Level Estimated
Sat 02:48:00 AM -0.4827 -68.0410 139° Southeast  Level Estimated
Sat 02:49:00 AM -0.5849 -67.9526 139° Southeast  Level Estimated
Sat 02:50:00 AM -0.6872 -67.8642 139° Southeast  Level Estimated
Sat 02:51:00 AM -0.7895 -67.7758 139° Southeast  Level Estimated
Sat 02:52:00 AM -0.8918 -67.6874 139° Southeast  Level Estimated
Sat 02:53:00 AM -0.9941 -67.5990 139° Southeast  Level Estimated
Sat 02:54:00 AM -1.0964 -67.5106 139° Southeast  Level Estimated
Sat 02:55:00 AM -1.1987 -67.4222 139° Southeast  Level Estimated
Sat 02:56:00 AM -1.3009 -67.3338 139° Southeast  Level Estimated
Sat 02:57:00 AM -1.4032 -67.2454 139° Southeast  Level Estimated
Sat 02:58:00 AM -1.5055 -67.1570 139° Southeast  Level Estimated
Sat 02:59:00 AM -1.6078 -67.0685 139° Southeast  Level Estimated
Sat 03:00:00 AM -1.7100 -66.9801 139° Southeast  Level Estimated
Sat 03:01:00 AM -1.8123 -66.8916 139° Southeast  Level Estimated
Sat 03:02:00 AM -1.9145 -66.8031 139° Southeast  Level Estimated
Sat 03:03:00 AM -2.0168 -66.7147 139° Southeast  Level Estimated
Sat 03:04:00 AM -2.1190 -66.6262 139° Southeast  Level Estimated
Sat 03:05:00 AM -2.2213 -66.5377 139° Southeast  Level Estimated
Sat 03:06:00 AM -2.3235 -66.4492 139° Southeast  Level Estimated
Sat 03:07:00 AM -2.4257 -66.3606 139° Southeast  Level Estimated
Sat 03:08:00 AM -2.5280 -66.2721 139° Southeast  Level Estimated
Sat 03:09:00 AM -2.6302 -66.1835 139° Southeast  Level Estimated
Sat 03:10:00 AM -2.7324 -66.0950 139° Southeast  Level Estimated
Sat 03:11:00 AM -2.8346 -66.0064 139° Southeast  Level Estimated
Sat 03:12:00 AM -2.9368 -65.9178 139° Southeast  Level Estimated
Sat 03:13:00 AM -3.0390 -65.8292 139° Southeast  Level Estimated
Sat 03:14:00 AM -3.1412 -65.7405 139° Southeast  Level Estimated
Sat 03:15:00 AM -3.2434 -65.6519 139° Southeast  Level Estimated
Sat 03:16:00 AM -3.3455 -65.5632 139° Southeast  Level Estimated
Sat 03:17:00 AM -3.4477 -65.4745 139° Southeast  Level Estimated
Sat 03:18:00 AM -3.5498 -65.3858 139° Southeast  Level Estimated
Sat 03:19:00 AM -3.6520 -65.2971 139° Southeast  Level Estimated
Sat 03:20:00 AM -3.7541 -65.2084 139° Southeast  Level Estimated
Sat 03:21:00 AM -3.8562 -65.1196 139° Southeast  Level Estimated
Sat 03:22:00 AM -3.9584 -65.0308 139° Southeast  Level Estimated
Sat 03:23:00 AM -4.0605 -64.9420 139° Southeast  Level Estimated
Sat 03:24:00 AM -4.1626 -64.8532 139° Southeast  Level Estimated
Sat 03:25:00 AM -4.2647 -64.7643 139° Southeast  Level Estimated
Sat 03:26:00 AM -4.3667 -64.6754 139° Southeast  Level Estimated
Sat 03:27:00 AM -4.4688 -64.5865 139° Southeast  Level Estimated
Sat 03:28:00 AM -4.5709 -64.4976 139° Southeast  Level Estimated
Sat 03:29:00 AM -4.6729 -64.4087 139° Southeast  Level Estimated
Sat 03:30:00 AM -4.7750 -64.3197 139° Southeast  Level Estimated
Sat 03:31:00 AM -4.8770 -64.2307 139° Southeast  Level Estimated
Sat 03:32:00 AM -4.9790 -64.1416 139° Southeast  Level Estimated
Sat 03:33:00 AM -5.0810 -64.0526 139° Southeast  Level Estimated
Sat 03:34:00 AM -5.1830 -63.9635 139° Southeast  Level Estimated
Sat 03:35:00 AM -5.2850 -63.8744 139° Southeast  Level Estimated
Sat 03:36:00 AM -5.3869 -63.7852 139° Southeast  Level Estimated
Sat 03:37:00 AM -5.4889 -63.6960 139° Southeast  Level Estimated
Sat 03:38:00 AM -5.5908 -63.6068 139° Southeast  Level Estimated
Sat 03:39:00 AM -5.6927 -63.5176 139° Southeast  Level Estimated
Sat 03:40:00 AM -5.7946 -63.4283 139° Southeast  Level Estimated
Sat 03:41:00 AM -5.8965 -63.3390 139° Southeast  Level Estimated
Sat 03:42:00 AM -5.9984 -63.2497 139° Southeast  Level Estimated
Sat 03:43:00 AM -6.1003 -63.1603 139° Southeast  Level Estimated
Sat 03:44:00 AM -6.2021 -63.0709 139° Southeast  Level Estimated
Sat 03:45:00 AM -6.3040 -62.9815 139° Southeast  Level Estimated
Sat 03:46:00 AM -6.4058 -62.8920 139° Southeast  Level Estimated
Sat 03:47:00 AM -6.5076 -62.8025 139° Southeast  Level Estimated
Sat 03:48:00 AM -6.6094 -62.7130 139° Southeast  Level Estimated
Sat 03:49:00 AM -6.7112 -62.6234 139° Southeast  Level Estimated
Sat 03:50:00 AM -6.8129 -62.5338 139° Southeast  Level Estimated
Sat 03:51:00 AM -6.9147 -62.4441 139° Southeast  Level Estimated
Sat 03:52:00 AM -7.0164 -62.3544 139° Southeast  Level Estimated
Sat 03:53:00 AM -7.1181 -62.2647 139° Southeast  Level Estimated
Sat 03:54:00 AM -7.2198 -62.1749 139° Southeast  Level Estimated
Sat 03:55:00 AM -7.3215 -62.0851 139° Southeast  Level Estimated
Sat 03:56:00 AM -7.4231 -61.9953 139° Southeast  Level Estimated
Sat 03:57:00 AM -7.5248 -61.9054 139° Southeast  Level Estimated
Sat 03:58:00 AM -7.6264 -61.8154 139° Southeast  Level Estimated
Sat 03:59:00 AM -7.7280 -61.7254 139° Southeast  Level Estimated
Sat 04:00:00 AM -7.8296 -61.6354 139° Southeast  Level Estimated
Sat 04:01:00 AM -7.9311 -61.5454 139° Southeast  Level Estimated
Sat 04:02:00 AM -8.0327 -61.4552 139° Southeast  Level Estimated
Sat 04:03:00 AM -8.1342 -61.3651 139° Southeast  Level Estimated
Sat 04:04:00 AM -8.2357 -61.2749 139° Southeast  Level Estimated
Sat 04:05:00 AM -8.3372 -61.1846 139° Southeast  Level Estimated
Sat 04:06:00 AM -8.4386 -61.0943 139° Southeast  Level Estimated
Sat 04:07:00 AM -8.5401 -61.0040 139° Southeast  Level Estimated
Sat 04:08:00 AM -8.6415 -60.9136 139° Southeast  Level Estimated
Sat 04:09:00 AM -8.7429 -60.8232 139° Southeast  Level Estimated
Sat 04:10:00 AM -8.8443 -60.7327 139° Southeast  Level Estimated
Sat 04:11:00 AM -8.9456 -60.6421 139° Southeast  Level Estimated
Sat 04:12:00 AM -9.0470 -60.5516 139° Southeast  Level Estimated
Sat 04:13:00 AM -9.1483 -60.4609 139° Southeast  Level Estimated
Sat 04:14:00 AM -9.2495 -60.3702 139° Southeast  Level Estimated
Sat 04:15:00 AM -9.3508 -60.2795 139° Southeast  Level Estimated
Sat 04:16:00 AM -9.4521 -60.1887 139° Southeast  Level Estimated
Sat 04:17:00 AM -9.5533 -60.0978 138° Southeast  Level Estimated
Sat 04:18:00 AM -9.6545 -60.0069 138° Southeast  Level Estimated
Sat 04:19:00 AM -9.7556 -59.9160 138° Southeast  Level Estimated
Sat 04:20:00 AM -9.8568 -59.8250 138° Southeast  Level Estimated
Sat 04:21:00 AM -9.9579 -59.7339 138° Southeast  Level Estimated
Sat 04:22:00 AM -10.0590 -59.6428 138° Southeast  Level Estimated
Sat 04:23:00 AM -10.1601 -59.5516 138° Southeast  Level Estimated
Sat 04:24:00 AM -10.2612 -59.4603 138° Southeast  Level Estimated
Sat 04:25:00 AM -10.3622 -59.3690 138° Southeast  Level Estimated
Sat 04:26:00 AM -10.4632 -59.2777 138° Southeast  Level Estimated
Sat 04:27:00 AM -10.5641 -59.1863 138° Southeast  Level Estimated
Sat 04:28:00 AM -10.6651 -59.0948 138° Southeast  Level Estimated
Sat 04:29:00 AM -10.7660 -59.0032 138° Southeast  Level Estimated
Sat 04:30:00 AM -10.8669 -58.9116 138° Southeast  Level Estimated
Sat 04:31:00 AM -10.9678 -58.8200 138° Southeast  Level Estimated
Sat 04:32:00 AM -11.0686 -58.7283 138° Southeast  Level Estimated
Sat 04:33:00 AM -11.1694 -58.6365 138° Southeast  Level Estimated
Sat 04:34:00 AM -11.2702 -58.5446 138° Southeast  Level Estimated
Sat 04:35:00 AM -11.3709 -58.4527 138° Southeast  Level Estimated
Sat 04:36:00 AM -11.4717 -58.3607 138° Southeast  Level Estimated
Sat 04:37:00 AM -11.5724 -58.2687 138° Southeast  Level Estimated
Sat 04:38:00 AM -11.6730 -58.1766 138° Southeast  Level Estimated
Sat 04:39:00 AM -11.7737 -58.0844 138° Southeast  Level Estimated
Sat 04:40:00 AM -11.8743 -57.9921 138° Southeast  Level Estimated
Sat 04:41:00 AM -11.9749 -57.8998 138° Southeast  Level Estimated
Sat 04:42:00 AM -12.0754 -57.8074 138° Southeast  Level Estimated
Sat 04:43:00 AM -12.1760 -57.7150 138° Southeast  Level Estimated
Sat 04:44:00 AM -12.2764 -57.6225 138° Southeast  Level Estimated
Sat 04:45:00 AM -12.3769 -57.5299 138° Southeast  Level Estimated
Sat 04:46:00 AM -12.4773 -57.4372 138° Southeast  Level Estimated
Sat 04:47:00 AM -12.5777 -57.3445 138° Southeast  Level Estimated
Sat 04:48:00 AM -12.6781 -57.2517 138° Southeast  Level Estimated
Sat 04:49:00 AM -12.7784 -57.1588 138° Southeast  Level Estimated
Sat 04:50:00 AM -12.8787 -57.0658 138° Southeast  Level Estimated
Sat 04:51:00 AM -12.9790 -56.9728 138° Southeast  Level Estimated
Sat 04:52:00 AM -13.0792 -56.8797 138° Southeast  Level Estimated
Sat 04:53:00 AM -13.1794 -56.7865 138° Southeast  Level Estimated
Sat 04:54:00 AM -13.2796 -56.6932 138° Southeast  Level Estimated
Sat 04:55:00 AM -13.3797 -56.5999 138° Southeast  Level Estimated
Sat 04:56:00 AM -13.4798 -56.5065 138° Southeast  Level Estimated
Sat 04:57:00 AM -13.5799 -56.4130 138° Southeast  Level Estimated
Sat 04:58:00 AM -13.6799 -56.3194 138° Southeast  Level Estimated
Sat 04:59:00 AM -13.7799 -56.2258 138° Southeast  Level Estimated
Sat 05:00:00 AM -13.8798 -56.1320 138° Southeast  Level Estimated
Sat 05:01:00 AM -13.9797 -56.0382 138° Southeast  Level Estimated
Sat 05:02:00 AM -14.0796 -55.9443 138° Southeast  Level Estimated
Sat 05:03:00 AM -14.1795 -55.8504 138° Southeast  Level Estimated
Sat 05:04:00 AM -14.2793 -55.7563 138° Southeast  Level Estimated
Sat 05:05:00 AM -14.3791 -55.6622 138° Southeast  Level Estimated
Sat 05:06:00 AM -14.4788 -55.5680 138° Southeast  Level Estimated
Sat 05:07:00 AM -14.5785 -55.4736 138° Southeast  Level Estimated
Sat 05:08:00 AM -14.6782 -55.3792 138° Southeast  Level Estimated
Sat 05:09:00 AM -14.7778 -55.2848 137° Southeast  Level Estimated
Sat 05:10:00 AM -14.8774 -55.1902 137° Southeast  Level Estimated
Sat 05:11:00 AM -14.9769 -55.0956 137° Southeast  Level Estimated
Sat 05:12:00 AM -15.0764 -55.0008 137° Southeast  Level Estimated
Sat 05:13:00 AM -15.1759 -54.9060 137° Southeast  Level Estimated
Sat 05:14:00 AM -15.2753 -54.8111 137° Southeast  Level Estimated
Sat 05:15:00 AM -15.3747 -54.7160 137° Southeast  Level Estimated
Sat 05:16:00 AM -15.4741 -54.6209 137° Southeast  Level Estimated
Sat 05:17:00 AM -15.5734 -54.5258 137° Southeast  Level Estimated
Sat 05:18:00 AM -15.6727 -54.4305 137° Southeast  Level Estimated
Sat 05:19:00 AM -15.7719 -54.3351 137° Southeast  Level Estimated
Sat 05:20:00 AM -15.8710 -54.2396 137° Southeast  Level Estimated
Sat 05:21:00 AM -15.9702 -54.1441 137° Southeast  Level Estimated
Sat 05:22:00 AM -16.0693 -54.0484 137° Southeast  Level Estimated
Sat 05:23:00 AM -16.1684 -53.9526 137° Southeast  Level Estimated
Sat 05:24:00 AM -16.2674 -53.8568 137° Southeast  Level Estimated
Sat 05:25:00 AM -16.3663 -53.7608 137° Southeast  Level Estimated
Sat 05:26:00 AM -16.4653 -53.6648 137° Southeast  Level Estimated
Sat 05:27:00 AM -16.5641 -53.5686 137° Southeast  Level Estimated
Sat 05:28:00 AM -16.6630 -53.4724 137° Southeast  Level Estimated
Sat 05:29:00 AM -16.7618 -53.3761 137° Southeast  Level Estimated
Sat 05:30:00 AM -16.8605 -53.2796 137° Southeast  Level Estimated
Sat 05:31:00 AM -16.9592 -53.1831 137° Southeast  Level Estimated
Sat 05:32:00 AM -17.0579 -53.0864 137° Southeast  Level Estimated
Sat 05:33:00 AM -17.1565 -52.9897 137° Southeast  Level Estimated
Sat 05:34:00 AM -17.2551 -52.8928 137° Southeast  Level Estimated
Sat 05:35:00 AM -17.3536 -52.7959 137° Southeast  Level Estimated
Sat 05:36:00 AM -17.4520 -52.6988 137° Southeast  Level Estimated
Sat 05:37:00 AM -17.5505 -52.6017 137° Southeast  Level Estimated
Sat 05:38:00 AM -17.6489 -52.5044 137° Southeast  Level Estimated
Sat 05:39:00 AM -17.7472 -52.4070 137° Southeast  Level Estimated
Sat 05:40:00 AM -17.8455 -52.3096 137° Southeast  Level Estimated
Sat 05:41:00 AM -17.9437 -52.2120 137° Southeast  Level Estimated
Sat 05:42:00 AM -18.0419 -52.1143 137° Southeast  Level Estimated
Sat 05:43:00 AM -18.1400 -52.0164 137° Southeast  Level Estimated
Sat 05:44:00 AM -18.2381 -51.9185 137° Southeast  Level Estimated
Sat 05:45:00 AM -18.3362 -51.8205 137° Southeast  Level Estimated
Sat 05:46:00 AM -18.4342 -51.7224 136° Southeast  Level Estimated
Sat 05:47:00 AM -18.5321 -51.6241 136° Southeast  Level Estimated
Sat 05:48:00 AM -18.6300 -51.5257 136° Southeast  Level Estimated
Sat 05:49:00 AM -18.7278 -51.4273 136° Southeast  Level Estimated
Sat 05:50:00 AM -18.8256 -51.3287 136° Southeast  Level Estimated
Sat 05:51:00 AM -18.9233 -51.2300 136° Southeast  Level Estimated
Sat 05:52:00 AM -19.0210 -51.1312 136° Southeast  Level Estimated
Sat 05:53:00 AM -19.1187 -51.0322 136° Southeast  Level Estimated
Sat 05:54:00 AM -19.2162 -50.9332 136° Southeast  Level Estimated
Sat 05:54:08 AM -19.3380 -50.3010 136° Southeast 524 603 31,000  Level FlightAware ADS-B
Sat 05:54:50 AM -19.4110 -50.2210 134° Southeast 524 603 31,000  Level FlightAware ADS-B
Sat 05:55:00 AM -19.3137 -50.8340 136° Southeast  Level Estimated
Sat 05:55:31 AM -19.4740 -50.1510 134° Southeast 526 605 31,000  Level FlightAware ADS-B
Sat 05:56:18 AM -19.5590 -50.0580 134° Southeast 526 605 31,000  Level FlightAware ADS-B
Sat 05:57:01 AM -19.6280 -49.9810 134° Southeast 527 606 31,000  Level FlightAware ADS-B
Sat 05:57:43 AM -19.6920 -49.9120 135° Southeast 528 608 31,000  Level FlightAware ADS-B
Sat 05:58:27 AM -19.7780 -49.8180 134° Southeast 529 609 31,000  Level FlightAware ADS-B
Sat 05:59:07 AM -19.8460 -49.7430 134° Southeast 529 609 31,000  Level FlightAware ADS-B
Sat 05:59:50 AM -19.9080 -49.6760 135° Southeast 530 610 31,000  Level FlightAware ADS-B
Sat 06:00:29 AM -19.9780 -49.5990 134° Southeast 530 610 31,000  Level FlightAware ADS-B
Sat 06:01:08 AM -20.0490 -49.5210 134° Southeast 531 611 31,000  Level FlightAware ADS-B
Sat 06:01:56 AM -20.1380 -49.4300 136° Southeast 529 609 31,000  Level FlightAware ADS-B
Sat 06:02:38 AM -20.2160 -49.3570 139° Southeast 530 610 31,000  Level FlightAware ADS-B
Sat 06:03:12 AM -20.2710 -49.3040 138° Southeast 531 611 31,000  Level FlightAware ADS-B
Sat 06:04:02 AM -20.3640 -49.2130 137° Southeast 532 612 31,000  Level FlightAware ADS-B
Sat 06:04:39 AM -20.4310 -49.1470 137° Southeast 533 613 31,000  Level FlightAware ADS-B
Sat 06:05:24 AM -20.5170 -49.0620 137° Southeast 533 613 31,000  Level FlightAware ADS-B
Sat 06:06:08 AM -20.5960 -48.9830 137° Southeast 534 615 31,000  Level FlightAware ADS-B
Sat 06:06:50 AM -20.6730 -48.9080 138° Southeast 534 615 31,000  Level FlightAware ADS-B
Sat 06:07:32 AM -20.7490 -48.8330 137° Southeast 534 615 31,000  Level FlightAware ADS-B
Sat 06:08:12 AM -20.8220 -48.7600 137° Southeast 535 616 31,000  Level FlightAware ADS-B
Sat 06:08:54 AM -20.8990 -48.6860 138° Southeast 537 618 31,000  Level FlightAware ADS-B
Sat 06:09:39 AM -20.9800 -48.6050 137° Southeast 539 620 31,000  Level FlightAware ADS-B
Sat 06:10:22 AM -21.0610 -48.5260 138° Southeast 539 620 31,000  Level FlightAware ADS-B
Sat 06:10:56 AM -21.1230 -48.4640 137° Southeast 539 620 31,000  Level FlightAware ADS-B
Sat 06:11:34 AM -21.1480 -48.4390 137° Southeast 539 620 31,000  Level FlightAware ADS-B
Sat 06:12:20 AM -21.2770 -48.3120 137° Southeast 541 623 31,000  Level FlightAware ADS-B
Sat 06:13:00 AM -21.3520 -48.2380 137° Southeast 542 624 31,000  Level FlightAware ADS-B
Sat 06:13:42 AM -21.4210 -48.1690 137° Southeast 542 624 31,000  Level FlightAware ADS-B
Sat 06:14:19 AM -21.4910 -48.0990 137° Southeast 542 624 31,000  Level FlightAware ADS-B
Sat 06:15:06 AM -21.5830 -48.0080 137° Southeast 544 626 31,000  Level FlightAware ADS-B
Sat 06:15:50 AM -21.6630 -47.9280 137° Southeast 544 626 31,000  Level FlightAware ADS-B
Sat 06:16:31 AM -21.7390 -47.8520 137° Southeast 544 626 31,000  Level FlightAware ADS-B
Sat 06:17:14 AM -21.8200 -47.7710 137° Southeast 545 627 31,000  Level FlightAware ADS-B
Sat 06:17:58 AM -21.9010 -47.6900 137° Southeast 545 627 31,000  Level FlightAware ADS-B
Sat 06:18:34 AM -21.9660 -47.6240 137° Southeast 546 628 31,000 -220 Level FlightAware ADS-B
Sat 06:19:20 AM -22.0510 -47.5380 137° Southeast 541 623 30,700 -1,256 Descending FlightAware ADS-B
Sat 06:20:00 AM -22.1240 -47.4650 137° Southeast 533 613 29,200 -1,393 Descending FlightAware ADS-B
Sat 06:21:12 AM -22.1780 -47.4100 137° Southeast 527 606 28,100 -2,196 Descending FlightAware ADS-B
Sat 06:21:52 AM -22.3200 -47.2680 137° Southeast 513 590 25,100 -3,318 Descending FlightAware ADS-B
Sat 06:22:37 AM -22.3970 -47.1890 137° Southeast 507 583 23,400 -2,118 Descending FlightAware ADS-B
Sat 06:23:17 AM -22.4650 -47.1190 136° Southeast 492 566 22,100 -1,694 Descending FlightAware ADS-B
Sat 06:24:02 AM -22.5400 -47.0450 138° Southeast 468 539 21,000 -1,694 Descending FlightAware ADS-B
Sat 06:24:42 AM -22.6110 -46.9930 146° Southeast 447 514 19,700 -1,514 Descending FlightAware ADS-B
Sat 06:25:49 AM -22.6970 -46.9440 152° Southeast 436 502 18,300 -1,846 Descending FlightAware ADS-B
Sat 06:26:26 AM -22.7990 -46.8860 152° Southeast 424 488 16,500 -2,500 Descending FlightAware ADS-B
Sat 06:27:01 AM -22.8600 -46.8510 152° Southeast 419 482 15,300 -1,920 Descending FlightAware ADS-B
Sat 06:27:41 AM -22.9290 -46.8130 153° Southeast 410 472 14,100 -1,786 Descending FlightAware ADS-B
Sat 06:28:25 AM -23.0010 -46.7730 153° Southeast 400 460 12,800 -1,744 Descending FlightAware ADS-B
Sat 06:29:07 AM -23.0690 -46.7330 152° Southeast 375 432 11,600 -1,463 Descending FlightAware ADS-B
Sat 06:29:47 AM -23.1160 -46.6820 135° Southeast 357 411 10,800 -1,350 Descending FlightAware ADS-B
Sat 06:30:27 AM -23.1450 -46.6220 118° Southeast 321 369 9,800 -1,588 Descending FlightAware ADS-B
Sat 06:30:55 AM -23.1630 -46.5820 116° Southeast 319 367 9,000 -947 Descending FlightAware ADS-B
Sat 06:31:24 AM -23.1810 -46.5410 116° Southeast 302 348 8,900 -267 Descending FlightAware ADS-B
Sat 06:31:40 AM -23.1900 -46.5190 114° Southeast 302 348 8,800 -800 Descending FlightAware ADS-B
Sat 06:32:09 AM -23.2070 -46.4820 117° Southeast 299 344 8,300 -947 Descending FlightAware ADS-B
Sat 06:32:37 AM -23.2240 -46.4440 116° Southeast 295 339 7,900 -894 Descending FlightAware ADS-B
Sat 06:32:56 AM -23.2360 -46.4170 116° Southeast 286 329 7,600 -1,077 Descending FlightAware ADS-B
Sat 06:33:16 AM -23.2470 -46.3920 116° Southeast 283 326 7,200 -941 Descending FlightAware ADS-B
Sat 06:33:47 AM -23.2640 -46.3530 115° Southeast 276 318 6,800 -964 Descending FlightAware ADS-B
Sat 06:34:12 AM -23.2790 -46.3210 117° Southeast 271 312 6,300 -1,000 Descending FlightAware ADS-B
Sat 06:34:41 AM -23.2940 -46.2860 115° Southeast 255 293 5,900 -700 Descending FlightAware ADS-B
Sat 06:35:12 AM -23.3160 -46.2590 132° Southeast 213 245 5,600 -585 Descending FlightAware ADS-B
Sat 06:35:22 AM -23.3250 -46.2580 174° South 198 228 5,500 -769 Descending FlightAware ADS-B
Sat 06:35:51 AM -23.3430 -46.2720 216° Southwest 160 184 5,100 -655 Descending FlightAware ADS-B
Sat 06:36:17 AM -23.3540 -46.2850 227° Southwest 142 163 4,900 -293 Descending FlightAware ADS-B
Sat 06:36:32 AM -23.3620 -46.2970 234° Southwest 146 168 4,900 -682 Level FlightAware ADS-B
Sat 06:37:01 AM -23.3760 -46.3100 220° Southwest 152 175 4,400 -882 Descending FlightAware ADS-B
Sat 06:37:40 AM -23.3940 -46.3300 226° Southwest 154 177 3,900 -448 Descending FlightAware ADS-B
Sat 06:38:08 AM -23.4050 -46.3490 238° Southwest 151 174 3,900  Level FlightAware ADS-B
Sat 06:38:26 AM -23.4070 -46.3620 260° West 151 174 3,900  Level FlightAware ADS-B
Sat 06:38:50 AM -23.4100 -46.3790 259° West 151 174 3,900 -429 Level FlightAware ADS-B
Sat 06:39:08 AM -23.4140 -46.3940 254° West 153 176 3,600 -837 Descending FlightAware ADS-B
Sat 06:39:33 AM -23.4190 -46.4120 253° West 143 165 3,300 -667 Descending FlightAware ADS-B
Sat 06:40:02 AM -23.4240 -46.4310 254° West 136 157 3,000 -692 Descending FlightAware ADS-B
Sat 06:40:25 AM -23.4280 -46.4460 254° West 135 155 2,700 -783 Descending FlightAware ADS-B
Sat 06:41:12 AM -23.4340 -46.4690 254° West 120 138 -3,447 Descending FlightAware ADS-B
Sat 06:41:28 AM -23.4370 -46.4790 252° West 39 45  Level FlightAware ADS-B

Login

Don't have an account? Register now (free) for customized features, flight alerts, and more!